Time;durP1;ratioP1;P1;durP2;ratioP2;P2;SDS_P1;SDS_P2;PMS_P1;PMS_P2;Temp;Humidity;BMP_temperature;BMP_pressure;BME280_temperature;BME280_humidity;BME280_pressure;Samples;Min_cycle;Max_cycle;Signal;HPM_P1;HPM_P2
2021/12/20 00:00:38;;;;;;;14.80;6.20;;;;;;;5.06;100.00;102589.06;2098722;28;20024;-69
2021/12/20 00:01:39;;;;;;;10.27;5.38;;;;;;;5.05;100.00;102577.84;2107823;28;20016;-69
2021/12/20 00:02:41;;;;;;;11.45;5.32;;;;;;;5.04;100.00;102581.28;2098680;28;20012;-69
2021/12/20 00:03:41;;;;;;;9.20;4.75;;;;;;;5.03;100.00;102569.19;2098874;28;20020;-69
2021/12/20 00:04:42;;;;;;;9.37;5.57;;;;;;;5.03;100.00;102571.78;2098664;28;20458;-69
2021/12/20 00:05:43;;;;;;;7.40;4.68;;;;;;;5.04;100.00;102578.69;2098708;28;20429;-69
2021/12/20 00:06:43;;;;;;;12.50;5.40;;;;;;;5.05;100.00;102569.19;2107684;28;20035;-70
2021/12/20 00:07:43;;;;;;;10.93;5.67;;;;;;;5.05;100.00;102570.06;2107635;28;20031;-68
2021/12/20 00:08:44;;;;;;;11.20;5.27;;;;;;;5.04;100.00;102568.34;2107667;28;20062;-69
2021/12/20 00:09:44;;;;;;;7.90;4.93;;;;;;;5.04;100.00;102565.75;2107614;28;20036;-68
2021/12/20 00:10:44;;;;;;;11.03;5.27;;;;;;;5.03;100.00;102572.66;2107651;28;20067;-69
2021/12/20 00:11:45;;;;;;;15.20;5.00;;;;;;;5.02;100.00;102573.50;2107595;28;20030;-69
2021/12/20 00:12:46;;;;;;;6.70;4.67;;;;;;;5.03;100.00;102571.78;2106854;28;20028;-69
2021/12/20 00:13:46;;;;;;;7.20;4.53;;;;;;;5.02;100.00;102583.88;2107000;28;20020;-68
2021/12/20 00:14:46;;;;;;;6.77;4.13;;;;;;;5.03;100.00;102582.13;2107613;28;20027;-69
2021/12/20 00:15:46;;;;;;;9.47;4.37;;;;;;;5.05;100.00;102583.00;2107770;28;20430;-70
2021/12/20 00:16:47;;;;;;;8.60;4.67;;;;;;;5.04;100.00;102581.28;2107607;28;20074;-69
2021/12/20 00:17:47;;;;;;;10.93;5.17;;;;;;;5.03;100.00;102580.41;2107565;28;20089;-70
2021/12/20 00:18:47;;;;;;;9.53;4.40;;;;;;;5.03;100.00;102574.34;2107592;28;20031;-70
2021/12/20 00:19:48;;;;;;;12.50;5.07;;;;;;;5.01;100.00;102576.09;2107560;28;20046;-69
2021/12/20 00:20:48;;;;;;;11.93;5.57;;;;;;;5.01;100.00;102573.50;2107509;28;20073;-69
2021/12/20 00:21:49;;;;;;;8.23;4.73;;;;;;;4.99;100.00;102570.88;2098330;28;20028;-70
2021/12/20 00:22:49;;;;;;;9.27;4.47;;;;;;;5.00;100.00;102575.19;2098507;28;20070;-69
2021/12/20 00:23:49;;;;;;;11.93;4.97;;;;;;;4.98;100.00;102566.56;2107502;28;20020;-69
2021/12/20 00:24:50;;;;;;;8.47;4.20;;;;;;;4.99;100.00;102567.41;2107516;28;20027;-69
2021/12/20 00:25:50;;;;;;;10.83;4.17;;;;;;;4.99;100.00;102567.41;2107554;28;20039;-69
2021/12/20 00:26:50;;;;;;;8.15;4.30;;;;;;;4.98;100.00;102569.16;2096483;28;20025;-70
2021/12/20 00:27:51;;;;;;;9.30;3.80;;;;;;;4.97;100.00;102577.78;2090270;28;20086;-70
2021/12/20 00:28:51;;;;;;;12.07;4.57;;;;;;;4.97;100.00;102584.69;2090910;28;20056;-69
2021/12/20 00:29:51;;;;;;;9.13;3.97;;;;;;;4.96;100.00;102575.19;2090877;28;20024;-70
2021/12/20 00:30:52;;;;;;;9.77;4.07;;;;;;;4.96;100.00;102570.00;2090266;28;20025;-70
2021/12/20 00:31:52;;;;;;;7.57;3.80;;;;;;;4.96;100.00;102562.25;2090288;28;20096;-70
2021/12/20 00:32:52;;;;;;;7.93;4.30;;;;;;;4.97;100.00;102569.16;2090781;28;20363;-69
2021/12/20 00:33:52;;;;;;;10.70;4.00;;;;;;;4.97;100.00;102574.31;2098299;28;20451;-69
2021/12/20 00:34:53;;;;;;;7.43;2.67;;;;;;;4.95;100.00;102568.25;2090147;28;20054;-69
2021/12/20 00:35:53;;;;;;;9.30;3.57;;;;;;;4.95;100.00;102569.13;2090234;28;20033;-71
2021/12/20 00:37:02;;;;;;;15.40;4.60;;;;;;;4.96;100.00;102564.84;2090814;28;20465;-69
2021/12/20 00:40:40;;;;;;;10.82;3.28;;;;;;;4.99;100.00;102557.94;2090889;28;20072;-69
2021/12/20 00:41:40;;;;;;;7.77;3.93;;;;;;;4.97;100.00;102558.78;2090743;28;20025;-70
2021/12/20 00:42:41;;;;;;;6.83;3.43;;;;;;;4.98;100.00;102560.53;2090800;28;20488;-69
2021/12/20 00:43:41;;;;;;;5.80;2.97;;;;;;;4.97;100.00;102564.84;2090785;28;20100;-70
2021/12/20 00:44:42;;;;;;;10.43;3.23;;;;;;;4.97;100.00;102553.63;2090815;28;20111;-69
2021/12/20 00:45:43;;;;;;;14.33;3.67;;;;;;;4.97;100.00;102558.78;2090670;28;20029;-69
2021/12/20 00:46:43;;;;;;;6.20;2.55;;;;;;;4.96;100.00;102557.06;2090835;28;20029;-69
2021/12/20 00:47:43;;;;;;;8.90;3.77;;;;;;;4.95;100.00;102560.50;2090752;28;20040;-69
2021/12/20 00:48:44;;;;;;;8.32;2.90;;;;;;;4.96;100.00;102562.25;2090751;28;20466;-69
2021/12/20 00:49:44;;;;;;;8.33;3.50;;;;;;;4.93;100.00;102557.88;2090854;28;20103;-70
2021/12/20 00:50:45;;;;;;;7.30;2.80;;;;;;;4.94;100.00;102558.75;2090721;28;20025;-70
2021/12/20 00:51:45;;;;;;;8.30;3.25;;;;;;;4.93;100.00;102562.22;2090655;28;20047;-69
2021/12/20 00:52:47;;;;;;;9.80;3.50;;;;;;;4.93;100.00;102557.03;2090586;28;20017;-69
2021/12/20 00:53:47;;;;;;;;;;;;;;;4.94;100.00;102556.19;2090386;28;20031;-69
2021/12/20 00:54:47;;;;;;;7.60;2.80;;;;;;;4.92;100.00;102552.72;2090288;28;20270;-69
2021/12/20 00:55:48;;;;;;;8.67;2.57;;;;;;;4.92;100.00;102560.50;2090608;28;20021;-69
2021/12/20 00:56:49;;;;;;;8.52;2.70;;;;;;;4.91;100.00;102564.78;2090667;28;20036;-69
2021/12/20 00:57:50;;;;;;;6.13;2.57;;;;;;;4.89;100.00;102562.19;2090563;28;20032;-69
2021/12/20 00:58:51;;;;;;;8.45;3.00;;;;;;;4.90;100.00;102563.06;2089822;28;20036;-69
2021/12/20 00:59:51;;;;;;;9.97;3.13;;;;;;;4.89;100.00;102567.34;2089973;28;20013;-70
2021/12/20 01:00:52;;;;;;;7.80;2.73;;;;;;;4.89;100.00;102562.19;2090014;28;20021;-69
2021/12/20 01:01:52;;;;;;;9.10;2.88;;;;;;;4.89;100.00;102561.31;2090578;28;20088;-70
2021/12/20 01:02:53;;;;;;;7.70;2.93;;;;;;;4.90;100.00;102557.88;2090609;28;20017;-70
2021/12/20 01:03:54;;;;;;;7.45;2.42;;;;;;;4.89;100.00;102553.53;2090478;28;20532;-69
2021/12/20 01:04:54;;;;;;;9.20;3.10;;;;;;;4.90;100.00;102558.72;2090541;28;20036;-69
2021/12/20 01:05:55;;;;;;;9.47;2.73;;;;;;;4.89;100.00;102554.41;2090572;28;20086;-70
2021/12/20 01:06:55;;;;;;;11.77;2.27;;;;;;;4.88;100.00;102560.44;2090597;28;20029;-70
2021/12/20 01:07:59;;;;;;;13.10;3.50;;;;;;;4.89;100.00;102557.00;2090671;28;20147;-69
2021/12/20 01:09:00;;;;;;;10.35;2.90;;;;;;;4.88;100.00;102560.44;2090195;28;20025;-70
2021/12/20 01:10:05;;;;;;;6.90;2.70;;;;;;;4.89;100.00;102558.72;2089790;28;20020;-70
2021/12/20 01:11:05;;;;;;;8.68;2.10;;;;;;;4.88;100.00;102565.63;2089978;28;20534;-69
2021/12/20 01:12:08;;;;;;;8.67;2.90;;;;;;;4.89;100.00;102566.47;2090465;28;20044;-69
2021/12/20 01:13:08;;;;;;;8.35;1.90;;;;;;;4.87;100.00;102561.31;2090525;28;20033;-69
2021/12/20 01:14:08;;;;;;;8.77;2.83;;;;;;;4.87;100.00;102563.91;2090488;28;20029;-69
2021/12/20 01:15:10;;;;;;;9.23;2.20;;;;;;;4.86;100.00;102562.13;2090539;28;20086;-70
2021/12/20 01:16:13;;;;;;;7.10;2.67;;;;;;;4.86;100.00;102562.13;2090507;28;20017;-69
2021/12/20 01:17:13;;;;;;;6.88;2.60;;;;;;;4.84;100.00;102566.44;2090480;28;20074;-69
2021/12/20 01:18:14;;;;;;;7.60;2.20;;;;;;;4.83;100.00;102572.44;2090522;28;20028;-69
2021/12/20 01:19:14;;;;;;;7.47;2.60;;;;;;;4.83;100.00;102569.88;2090502;28;20362;-69
2021/12/20 01:20:14;;;;;;;6.73;2.57;;;;;;;4.82;100.00;102570.72;2090423;28;20315;-69
2021/12/20 01:21:15;;;;;;;10.37;2.20;;;;;;;4.84;100.00;102563.88;2090500;28;20023;-70
2021/12/20 01:22:15;;;;;;;7.23;2.03;;;;;;;4.85;100.00;102573.34;2090383;28;20287;-69
2021/12/20 01:23:16;;;;;;;10.10;2.67;;;;;;;4.84;100.00;102568.16;2090409;28;20037;-69
2021/12/20 01:24:16;;;;;;;7.82;2.13;;;;;;;4.83;100.00;102567.28;2090336;28;20036;-69
2021/12/20 01:25:17;;;;;;;12.53;2.50;;;;;;;4.80;100.00;102572.44;2090474;28;20028;-69
2021/12/20 01:26:18;;;;;;;;;;;;;;;4.81;100.00;102571.59;2090130;28;20451;-70
2021/12/20 01:27:18;;;;;;;8.38;2.20;;;;;;;4.80;100.00;102569.00;2086892;28;19923;-69
2021/12/20 01:28:18;;;;;;;8.40;2.13;;;;;;;4.79;100.00;102570.69;2097999;28;20051;-69
2021/12/20 01:29:19;;;;;;;8.63;2.07;;;;;;;4.79;100.00;102565.53;2090362;28;20418;-69
2021/12/20 01:30:22;;;;;;;12.57;2.67;;;;;;;4.82;100.00;102564.72;2090327;28;20040;-68
2021/12/20 01:31:23;;;;;;;12.73;2.33;;;;;;;4.82;100.00;102565.56;2090380;28;20470;-68
2021/12/20 01:32:23;;;;;;;11.30;1.90;;;;;;;4.84;100.00;102561.28;2090301;28;20044;-69
2021/12/20 01:33:23;;;;;;;12.57;2.43;;;;;;;4.82;100.00;102555.22;2090393;28;20485;-69
2021/12/20 01:34:24;;;;;;;7.27;1.57;;;;;;;4.83;100.00;102562.09;2090357;28;20025;-68
2021/12/20 01:35:26;;;;;;;12.50;2.00;;;;;;;4.80;100.00;102556.94;2090391;28;20107;-68
2021/12/20 01:36:26;;;;;;;13.57;2.40;;;;;;;4.81;100.00;102558.66;2090287;28;20104;-68
2021/12/20 01:37:26;;;;;;;15.67;2.57;;;;;;;4.82;100.00;102560.38;2089684;28;20028;-70
2021/12/20 01:38:27;;;;;;;8.33;1.80;;;;;;;4.81;100.00;102569.00;2089754;28;20028;-70
2021/12/20 01:39:27;;;;;;;6.43;2.13;;;;;;;4.79;100.00;102555.16;2090331;28;20083;-69
2021/12/20 01:40:27;;;;;;;9.63;2.57;;;;;;;4.78;100.00;102563.78;2090329;28;20405;-69
2021/12/20 01:41:28;;;;;;;10.33;2.77;;;;;;;4.78;100.00;102557.78;2090363;28;20108;-69
2021/12/20 01:42:31;;;;;;;8.20;1.90;;;;;;;4.77;100.00;102556.91;2089584;28;20124;-69
2021/12/20 01:43:31;;;;;;;7.70;1.77;;;;;;;4.74;100.00;102551.69;2089721;28;20051;-69
2021/12/20 01:44:32;;;;;;;13.63;2.53;;;;;;;4.74;100.00;102556.84;2090302;28;20029;-69
2021/12/20 01:45:32;;;;;;;7.63;1.60;;;;;;;4.71;100.00;102549.94;2090214;28;20032;-69
2021/12/20 01:46:33;;;;;;;13.40;2.50;;;;;;;4.70;100.00;102553.38;2089489;28;20028;-71
2021/12/20 01:47:37;;;;;;;8.10;2.08;;;;;;;4.71;100.00;102549.06;2081259;28;20029;-67
2021/12/20 01:48:39;;;;;;;7.07;1.58;;;;;;;4.72;100.00;102551.66;2089635;28;20032;-68
2021/12/20 01:49:54;;;;;;;11.85;2.25;;;;;;;4.74;100.00;102551.69;2089466;28;20020;-69
2021/12/20 01:52:13;;;;;;;7.60;1.70;;;;;;;4.73;100.00;102555.97;2090323;28;20426;-69
2021/12/20 01:53:20;;;;;;;11.05;2.70;;;;;;;4.73;100.00;102555.97;2090296;28;20024;-70
2021/12/20 01:54:20;;;;;;;12.27;1.77;;;;;;;4.72;100.00;102558.59;2090272;28;20431;-70
2021/12/20 01:55:21;;;;;;;7.93;1.60;;;;;;;4.70;100.00;102555.09;2090184;28;20025;-69
2021/12/20 01:56:21;;;;;;;5.78;2.08;;;;;;;4.70;100.00;102555.09;2097761;28;20095;-69
2021/12/20 01:57:23;;;;;;;9.47;1.77;;;;;;;4.72;100.00;102558.59;2089488;28;20474;-69
2021/12/20 01:58:26;;;;;;;14.93;2.33;;;;;;;4.73;100.00;102560.31;2089586;28;20036;-69
2021/12/20 01:59:28;;;;;;;9.57;2.28;;;;;;;4.72;100.00;102556.00;2090092;28;20040;-69
2021/12/20 02:00:29;;;;;;;12.40;2.17;;;;;;;4.70;100.00;102557.69;2090141;28;20021;-68
2021/12/20 02:01:31;;;;;;;11.82;2.10;;;;;;;4.67;100.00;102553.34;2090137;28;20021;-70
2021/12/20 02:02:31;;;;;;;;;;;;;;;4.68;100.00;102556.81;2089779;28;20502;-69
2021/12/20 02:03:33;;;;;;;10.05;1.70;;;;;;;4.66;100.00;102549.03;2089506;28;19909;-70
2021/12/20 02:04:44;;;;;;;9.07;2.30;;;;;;;4.66;100.00;102549.03;2090088;28;20067;-69
2021/12/20 02:05:52;;;;;;;10.65;2.13;;;;;;;4.66;100.00;102543.00;2090195;28;20483;-70
2021/12/20 02:06:54;;;;;;;9.05;1.67;;;;;;;4.67;100.00;102542.13;2090131;28;20104;-69
2021/12/20 02:08:01;;;;;;;;;;;;;;;4.68;100.00;102551.66;2090523;28;20035;-70
2021/12/20 02:09:08;;;;;;;15.77;3.35;;;;;;;4.69;99.70;102558.53;2090059;28;19943;-70
2021/12/20 02:10:09;;;;;;;11.13;2.00;;;;;;;4.69;99.60;102550.78;2090118;28;20025;-69
2021/12/20 02:11:10;;;;;;;8.93;2.20;;;;;;;4.68;99.95;102557.66;2090060;28;20116;-69
2021/12/20 02:12:10;;;;;;;10.30;1.63;;;;;;;4.68;99.62;102552.50;2090064;28;20033;-68
2021/12/20 02:13:16;;;;;;;11.03;2.30;;;;;;;4.67;100.00;102544.72;2089457;28;20162;-70
2021/12/20 02:14:18;;;;;;;8.82;1.92;;;;;;;4.65;100.00;102552.44;2089536;28;20021;-70
2021/12/20 02:15:18;;;;;;;11.43;1.90;;;;;;;4.63;99.64;102544.69;2090066;28;20020;-68
2021/12/20 02:16:19;;;;;;;12.03;2.10;;;;;;;4.63;99.01;102549.00;2089449;28;20496;-69
2021/12/20 02:17:19;;;;;;;8.85;2.40;;;;;;;4.65;99.26;102547.28;2089516;28;20039;-68
2021/12/20 02:18:20;;;;;;;9.43;1.90;;;;;;;4.65;98.91;102547.28;2090091;28;20071;-69
2021/12/20 02:19:20;;;;;;;14.67;2.00;;;;;;;4.64;98.98;102546.44;2090119;28;20051;-70
2021/12/20 02:20:30;;;;;;;9.07;2.40;;;;;;;4.65;99.58;102547.28;2089581;28;20434;-69
2021/12/20 02:21:31;;;;;;;11.77;1.92;;;;;;;4.66;99.32;102550.75;2089279;28;20071;-68
2021/12/20 02:22:32;;;;;;;10.90;2.25;;;;;;;4.63;99.51;102544.69;2089424;28;20036;-71
2021/12/20 02:23:32;;;;;;;9.77;2.00;;;;;;;4.60;99.45;102544.69;2097581;28;20079;-69
2021/12/20 02:24:33;;;;;;;7.80;2.17;;;;;;;4.58;99.72;102551.53;2089334;28;20063;-69
2021/12/20 02:25:33;;;;;;;13.33;2.00;;;;;;;4.59;98.21;102542.91;2089409;28;20028;-69
2021/12/20 02:26:35;;;;;;;9.15;2.08;;;;;;;4.60;98.44;102544.69;2090072;28;20039;-69
2021/12/20 02:27:36;;;;;;;10.27;1.95;;;;;;;4.59;98.58;102545.50;2089134;28;20051;-70
2021/12/20 02:28:42;;;;;;;8.90;1.90;;;;;;;4.59;98.53;102548.09;2089386;28;20064;-69
2021/12/20 02:29:57;;;;;;;8.80;1.85;;;;;;;4.59;98.13;102542.91;2089955;28;20013;-69
2021/12/20 02:37:36;;;;;;;9.90;2.00;;;;;;;4.61;97.86;102533.47;2089928;28;20049;-69
2021/12/20 02:38:37;;;;;;;9.40;2.13;;;;;;;4.62;97.55;102537.78;2090030;28;20025;-68
2021/12/20 02:39:38;;;;;;;6.85;1.50;;;;;;;4.62;97.08;102535.19;2089904;28;20508;-68
2021/12/20 02:40:38;;;;;;;11.02;2.58;;;;;;;4.63;96.47;102538.66;2090044;28;20033;-69
2021/12/20 02:41:38;;;;;;;9.27;1.80;;;;;;;4.63;96.28;102538.66;2090069;28;20108;-68
2021/12/20 02:42:41;;;;;;;8.07;1.90;;;;;;;4.62;96.20;102537.78;2089982;28;20013;-69
2021/12/20 02:44:04;;;;;;;9.27;1.77;;;;;;;4.63;96.74;102539.50;2089975;28;20093;-69
2021/12/20 02:45:15;;;;;;;8.13;1.88;;;;;;;4.63;97.77;102539.50;2089871;28;20025;-69
2021/12/20 02:46:32;;;;;;;18.23;2.33;;;;;;;4.62;97.18;102539.53;2089996;28;20108;-69
2021/12/20 02:47:32;;;;;;;12.88;2.25;;;;;;;4.61;98.23;102538.63;2097412;28;20024;-69
2021/12/20 02:48:33;;;;;;;11.55;1.85;;;;;;;4.59;98.16;102537.75;2089306;28;20106;-68
2021/12/20 02:49:33;;;;;;;12.37;2.40;;;;;;;4.57;98.05;102542.06;2089377;28;20413;-69
2021/12/20 02:50:34;;;;;;;16.00;2.28;;;;;;;4.57;99.02;102544.63;2089258;28;20115;-69
2021/12/20 02:51:35;;;;;;;14.80;2.33;;;;;;;4.56;99.25;102542.91;2089327;28;20094;-69
2021/12/20 02:52:35;;;;;;;;;;;;;;;4.56;99.25;102542.03;2090292;28;20025;-70
2021/12/20 02:53:36;;;;;;;8.18;1.45;;;;;;;4.53;100.00;102548.03;2089995;28;19967;-69
2021/12/20 02:54:36;;;;;;;8.13;1.60;;;;;;;4.51;99.61;102539.38;2090007;28;20044;-69
2021/12/20 02:55:36;;;;;;;9.07;1.73;;;;;;;4.52;100.00;102541.16;2089873;28;20442;-69
2021/12/20 02:56:37;;;;;;;12.47;2.50;;;;;;;4.50;100.00;102540.25;2090002;28;20091;-70
2021/12/20 02:57:39;;;;;;;6.75;1.40;;;;;;;4.48;100.00;102544.56;2089842;28;20064;-70
2021/12/20 02:58:39;;;;;;;;;;;;;;;4.49;100.00;102541.09;2090309;28;20021;-69
2021/12/20 02:59:40;;;;;;;6.50;1.27;;;;;;;4.47;100.00;102547.97;2089132;28;19909;-69
2021/12/20 03:00:41;;;;;;;12.10;2.10;;;;;;;4.47;99.20;102538.50;2089250;28;20021;-69
2021/12/20 03:01:45;;;;;;;11.10;2.43;;;;;;;4.49;97.65;102535.94;2089880;28;20020;-69
2021/12/20 03:02:45;;;;;;;7.05;1.83;;;;;;;4.52;97.14;102535.97;2089840;28;20056;-68
2021/12/20 03:03:48;;;;;;;10.00;1.70;;;;;;;4.52;98.42;102535.97;2089153;28;20074;-68
2021/12/20 03:04:49;;;;;;;9.13;2.22;;;;;;;4.50;97.97;102538.53;2089323;28;20031;-69
2021/12/20 03:05:49;;;;;;;14.73;2.35;;;;;;;4.51;97.13;102540.25;2089156;28;20028;-69
2021/12/20 03:06:54;;;;;;;13.63;2.60;;;;;;;4.54;96.09;102538.53;2089324;28;20024;-70
2021/12/20 03:07:55;;;;;;;14.25;2.42;;;;;;;4.55;94.56;102532.53;2089856;28;20036;-70
2021/12/20 03:08:57;;;;;;;;;;;;;;;4.59;96.01;102535.16;2090326;28;20029;-68
2021/12/20 03:10:02;;;;;;;8.88;2.25;;;;;;;4.57;97.12;102538.59;2089841;28;20373;-68
2021/12/20 03:11:03;;;;;;;6.38;1.80;;;;;;;4.54;97.34;102538.53;2089774;28;20485;-70
2021/12/20 03:12:07;;;;;;;14.48;2.50;;;;;;;4.51;97.82;102539.38;2089800;28;20072;-68
2021/12/20 03:13:09;;;;;;;10.13;1.83;;;;;;;4.50;97.79;102537.66;2089869;28;20043;-68
2021/12/20 03:14:17;;;;;;;7.72;2.17;;;;;;;4.47;98.21;102547.97;2089779;28;20029;-68
2021/12/20 03:15:22;;;;;;;9.48;1.52;;;;;;;4.47;99.42;102547.97;2097410;28;20029;-68
2021/12/20 03:16:22;;;;;;;10.05;2.22;;;;;;;4.45;99.15;102545.34;2096856;28;20024;-69
2021/12/20 03:17:23;;;;;;;18.63;2.67;;;;;;;4.41;99.16;102543.59;2089149;28;20025;-68
2021/12/20 03:18:23;;;;;;;9.23;1.77;;;;;;;4.39;100.00;102534.97;2089167;28;20021;-68
2021/12/20 03:19:24;;;;;;;11.77;2.20;;;;;;;4.36;99.01;102538.41;2089921;28;20021;-68
2021/12/20 03:20:25;;;;;;;;;;;;;;;4.40;99.53;102533.22;2090239;28;20035;-68
2021/12/20 03:21:25;;;;;;;11.50;1.92;;;;;;;4.41;99.30;102537.56;2089077;28;20007;-69
2021/12/20 03:22:25;;;;;;;3.97;1.00;;;;;;;4.41;99.42;102538.41;2089199;28;20467;-70
2021/12/20 03:23:26;;;;;;;7.97;1.50;;;;;;;4.41;99.46;102535.00;2089728;28;20037;-69
2021/12/20 03:24:27;;;;;;;10.18;2.00;;;;;;;4.40;100.00;102528.94;2089764;28;20543;-69
2021/12/20 03:25:27;;;;;;;8.07;1.98;;;;;;;4.38;100.00;102528.91;2089745;28;20036;-69
2021/12/20 03:26:27;;;;;;;7.50;1.43;;;;;;;4.36;100.00;102530.63;2089845;28;20067;-69
2021/12/20 03:27:28;;;;;;;12.77;2.43;;;;;;;4.34;100.00;102531.44;2103561;28;20068;-68
2021/12/20 03:28:28;;;;;;;10.60;1.40;;;;;;;4.32;100.00;102528.88;2097398;28;20024;-69
2021/12/20 03:29:28;;;;;;;12.17;2.20;;;;;;;4.32;99.48;102533.16;2097450;28;20044;-69
2021/12/20 03:30:28;;;;;;;8.63;1.93;;;;;;;4.34;99.75;102534.91;2105664;28;20028;-70
2021/12/20 03:31:29;;;;;;;11.27;2.00;;;;;;;4.36;100.00;102534.94;2097364;28;20067;-70
2021/12/20 03:32:29;;;;;;;8.60;1.97;;;;;;;4.36;99.08;102538.41;2098797;28;20039;-70
2021/12/20 03:33:29;;;;;;;11.63;1.70;;;;;;;4.37;100.00;102537.53;2107980;28;20024;-68
2021/12/20 03:34:30;;;;;;;9.23;1.60;;;;;;;4.37;100.00;102536.66;2107939;28;20053;-70
2021/12/20 03:35:30;;;;;;;7.97;1.90;;;;;;;4.36;100.00;102540.09;2107975;28;20055;-69
2021/12/20 03:36:30;;;;;;;9.97;1.83;;;;;;;4.34;99.56;102537.50;2107942;28;20031;-68
2021/12/20 03:37:31;;;;;;;7.07;2.10;;;;;;;4.34;99.24;102540.06;2108158;28;20024;-70
2021/12/20 03:38:31;;;;;;;10.90;2.38;;;;;;;4.35;99.24;102539.22;2107974;28;20103;-69
2021/12/20 03:39:32;;;;;;;23.53;3.57;;;;;;;4.36;98.05;102540.97;2098938;28;20445;-69
2021/12/20 03:40:32;;;;;;;13.60;2.00;;;;;;;4.37;98.48;102541.81;2098960;28;20032;-68
2021/12/20 03:41:33;;;;;;;11.00;1.80;;;;;;;4.37;98.19;102537.53;2107945;28;20038;-70
2021/12/20 03:42:34;;;;;;;10.07;1.63;;;;;;;4.39;98.33;102540.13;2107291;28;20028;-69
2021/12/20 03:43:35;;;;;;;;;;;;;;;4.42;98.82;102544.47;2107692;28;20054;-69
2021/12/20 03:44:43;;;;;;;13.85;2.78;;;;;;;4.41;98.48;102543.59;2107895;28;19934;-69
2021/12/20 03:45:44;;;;;;;9.82;2.30;;;;;;;4.42;98.35;102544.47;2107858;28;20020;-68
2021/12/20 03:46:45;;;;;;;9.77;1.80;;;;;;;4.42;99.87;102540.19;2107782;28;20024;-69
2021/12/20 03:47:46;;;;;;;9.60;1.80;;;;;;;4.41;99.99;102543.59;2107836;28;20017;-69
2021/12/20 03:48:46;;;;;;;10.38;2.00;;;;;;;4.38;100.00;102543.59;2107732;28;20755;-69
2021/12/20 03:49:46;;;;;;;7.83;1.50;;;;;;;4.33;100.00;102540.06;2107772;28;20047;-68
2021/12/20 03:50:47;;;;;;;9.23;1.73;;;;;;;4.29;100.00;102549.50;2098782;28;20052;-67
2021/12/20 03:51:47;;;;;;;10.10;2.07;;;;;;;4.28;100.00;102546.91;2098809;28;20592;-68
2021/12/20 03:52:47;;;;;;;10.63;1.97;;;;;;;4.28;99.46;102534.88;2107712;28;20024;-68
2021/12/20 03:53:47;;;;;;;10.77;1.80;;;;;;;4.29;99.36;102533.13;2107747;28;20119;-69
2021/12/20 03:54:48;;;;;;;9.43;1.87;;;;;;;4.32;97.58;102525.41;2107813;28;20039;-69
2021/12/20 03:55:49;;;;;;;11.88;2.53;;;;;;;4.40;97.13;102530.66;2107743;28;20028;-68
2021/12/20 03:56:49;;;;;;;7.93;2.50;;;;;;;4.45;95.99;102535.03;2107804;28;20024;-69
2021/12/20 03:57:50;;;;;;;6.27;1.60;;;;;;;4.47;96.55;102537.63;2107715;28;20043;-69
2021/12/20 03:58:50;;;;;;;12.18;2.50;;;;;;;4.47;96.89;102535.91;2107751;28;20098;-69
2021/12/20 03:59:52;;;;;;;12.17;1.93;;;;;;;4.45;96.74;102540.19;2107746;28;20074;-70
2021/12/20 04:00:58;;;;;;;12.48;2.13;;;;;;;4.42;97.11;102537.59;2107762;28;20020;-69
2021/12/20 04:01:59;;;;;;;7.82;1.95;;;;;;;4.39;97.30;102540.13;2107650;28;20054;-68
2021/12/20 04:03:00;;;;;;;11.02;1.92;;;;;;;4.38;97.41;102543.59;2107720;28;20048;-68
2021/12/20 04:04:02;;;;;;;9.32;1.77;;;;;;;4.36;98.68;102543.56;2107731;28;20031;-69
2021/12/20 04:05:02;;;;;;;10.77;2.25;;;;;;;4.36;98.83;102543.56;2107688;28;20024;-68
2021/12/20 04:06:04;;;;;;;6.63;1.83;;;;;;;4.37;99.23;102541.81;2107722;28;20059;-68
2021/12/20 04:07:05;;;;;;;13.25;2.25;;;;;;;4.35;99.06;102539.22;2107761;28;20327;-68
2021/12/20 04:08:06;;;;;;;13.23;2.07;;;;;;;4.33;99.39;102540.94;2107730;28;20456;-68
2021/12/20 04:09:06;;;;;;;11.77;2.03;;;;;;;4.32;99.60;102539.22;2107724;28;20110;-68
2021/12/20 04:10:08;;;;;;;11.60;2.17;;;;;;;4.30;98.26;102530.56;2107655;28;20028;-70
2021/12/20 04:11:09;;;;;;;13.20;2.45;;;;;;;4.32;98.29;102533.16;2107653;28;20020;-69
2021/12/20 04:12:10;;;;;;;;;;;;;;;4.35;98.82;102528.88;2107987;28;20025;-69
2021/12/20 04:13:10;;;;;;;7.85;1.45;;;;;;;4.35;97.60;102528.03;2107541;28;20348;-69
2021/12/20 04:14:11;;;;;;;8.43;1.83;;;;;;;4.38;97.74;102528.91;2107598;28;20020;-70
2021/12/20 04:15:11;;;;;;;10.25;1.92;;;;;;;4.37;98.40;102526.31;2107621;28;20035;-69
2021/12/20 04:16:12;;;;;;;10.80;1.87;;;;;;;4.34;97.81;102527.16;2107586;28;20051;-69
2021/12/20 04:17:12;;;;;;;14.53;2.50;;;;;;;4.33;98.30;102530.59;2107629;28;20020;-69
2021/12/20 04:18:12;;;;;;;9.03;1.93;;;;;;;4.33;97.99;102529.72;2107666;28;20058;-69
2021/12/20 04:19:13;;;;;;;12.00;2.57;;;;;;;4.32;97.91;102528.00;2107550;28;20365;-69
2021/12/20 04:20:13;;;;;;;13.63;2.20;;;;;;;4.33;97.59;102530.59;2107532;28;20047;-68
2021/12/20 04:21:14;;;;;;;12.20;2.20;;;;;;;4.34;96.70;102536.63;2107559;28;20024;-70
2021/12/20 04:22:19;;;;;;;12.48;2.08;;;;;;;4.34;97.13;102537.50;2107613;28;20023;-69
2021/12/20 04:23:19;;;;;;;9.00;1.95;;;;;;;4.35;96.77;102533.19;2107558;28;20039;-69
2021/12/20 04:24:20;;;;;;;10.05;2.22;;;;;;;4.37;97.16;102532.38;2107549;28;20024;-68
2021/12/20 04:25:20;;;;;;;10.50;1.87;;;;;;;4.36;97.23;102538.41;2107483;28;20119;-69
2021/12/20 04:26:20;;;;;;;9.23;2.13;;;;;;;4.34;96.92;102529.75;2107553;28;20035;-69
2021/12/20 04:27:21;;;;;;;8.83;1.73;;;;;;;4.36;96.58;102533.22;2098467;28;20040;-69
2021/12/20 04:28:21;;;;;;;13.27;2.23;;;;;;;4.39;98.16;102534.97;2090216;28;20084;-69
2021/12/20 04:29:22;;;;;;;5.40;1.95;;;;;;;4.38;97.18;102534.09;2098634;28;20024;-69
2021/12/20 04:30:22;;;;;;;8.20;2.30;;;;;;;4.38;97.14;102541.00;2098481;28;20098;-69
2021/12/20 04:31:23;;;;;;;9.63;1.50;;;;;;;4.36;97.43;102540.97;2098595;28;20281;-69
2021/12/20 04:32:23;;;;;;;12.60;2.50;;;;;;;4.34;98.55;102532.31;2098360;28;20076;-70
2021/12/20 04:33:23;;;;;;;11.33;1.77;;;;;;;4.32;97.85;102538.34;2098563;28;20025;-69
2021/12/20 04:34:24;;;;;;;11.67;1.80;;;;;;;4.30;97.74;102538.31;2098455;28;20119;-69
2021/12/20 04:35:24;;;;;;;8.70;2.47;;;;;;;4.30;97.34;102538.31;2098585;28;20032;-69
2021/12/20 04:36:24;;;;;;;14.03;2.47;;;;;;;4.32;98.04;102535.75;2107358;28;20032;-70
2021/12/20 04:37:25;;;;;;;11.17;1.90;;;;;;;4.32;97.69;102533.16;2107436;28;20035;-69
2021/12/20 04:38:28;;;;;;;11.23;2.83;;;;;;;4.31;98.12;102534.88;2098359;28;20028;-68
2021/12/20 04:39:31;;;;;;;13.23;2.70;;;;;;;4.30;99.16;102530.56;2098802;28;20033;-69
2021/12/20 04:40:31;;;;;;;8.40;1.98;;;;;;;4.28;97.79;102528.81;2107460;28;20024;-69
2021/12/20 04:41:31;;;;;;;11.63;2.23;;;;;;;4.30;97.03;102533.16;2107516;28;20385;-69
2021/12/20 04:42:32;;;;;;;12.70;2.37;;;;;;;4.30;96.12;102524.50;2107494;28;20024;-69
2021/12/20 04:43:32;;;;;;;12.37;2.10;;;;;;;4.33;95.88;102529.72;2106810;28;20036;-69
2021/12/20 04:44:32;;;;;;;11.73;1.93;;;;;;;4.34;96.84;102527.16;2107369;28;20278;-69
2021/12/20 04:45:34;;;;;;;12.90;2.13;;;;;;;4.36;95.80;102534.94;2098364;28;20477;-69
2021/12/20 04:46:34;;;;;;;9.75;2.45;;;;;;;4.36;96.52;102530.63;2098628;28;20100;-69
2021/12/20 04:47:34;;;;;;;15.30;2.33;;;;;;;4.35;96.00;102534.06;2107424;28;20069;-69
2021/12/20 04:48:34;;;;;;;9.57;2.10;;;;;;;4.35;97.51;102534.06;2107444;28;20020;-69
2021/12/20 04:49:35;;;;;;;10.83;2.40;;;;;;;4.34;95.94;102532.31;2098286;28;20059;-70
2021/12/20 04:50:35;;;;;;;16.10;2.87;;;;;;;4.36;94.99;102537.50;2090054;28;20493;-70
2021/12/20 04:51:36;;;;;;;15.30;2.53;;;;;;;4.36;94.71;102537.50;2098353;28;20099;-70
2021/12/20 04:52:36;;;;;;;9.60;2.47;;;;;;;4.37;95.58;102542.72;2107244;28;20020;-69
2021/12/20 04:53:37;;;;;;;9.65;2.05;;;;;;;4.37;95.40;102540.13;2107305;28;20024;-69
2021/12/20 04:54:37;;;;;;;12.03;1.80;;;;;;;4.38;96.85;102541.00;2107323;28;20126;-69
2021/12/20 04:55:37;;;;;;;10.33;2.00;;;;;;;4.36;98.25;102540.97;2107338;28;20488;-70
2021/12/20 04:56:37;;;;;;;10.27;2.07;;;;;;;4.34;97.52;102539.19;2107304;28;20085;-72